sensor_id;sensor_type;location;lat;lon;timestamp;pressure;altitude;pressure_sealevel;temperature;humidity
23361;BME280;11852;50.082;18.554;2023-03-01T00:00:42;99805.5;;;-1.09;73.15
23361;BME280;11852;50.082;18.554;2023-03-01T00:01:49;99814.0;;;-1.12;73.12
23361;BME280;11852;50.082;18.554;2023-03-01T00:02:56;99811.5;;;-1.12;73.13
23361;BME280;11852;50.082;18.554;2023-03-01T00:04:03;99805.5;;;-1.13;73.17
23361;BME280;11852;50.082;18.554;2023-03-01T00:05:10;99807.5;;;-1.14;73.33
23361;BME280;11852;50.082;18.554;2023-03-01T00:06:18;99810.5;;;-1.2;73.6
23361;BME280;11852;50.082;18.554;2023-03-01T00:07:24;99808.5;;;-1.23;73.65
23361;BME280;11852;50.082;18.554;2023-03-01T00:08:31;99804.51;;;-1.23;73.74
23361;BME280;11852;50.082;18.554;2023-03-01T00:09:38;99808.5;;;-1.24;73.89
23361;BME280;11852;50.082;18.554;2023-03-01T00:10:45;99808.5;;;-1.24;73.96
23361;BME280;11852;50.082;18.554;2023-03-01T00:11:52;99810.5;;;-1.23;73.93
23361;BME280;11852;50.082;18.554;2023-03-01T00:12:59;99813.0;;;-1.27;73.97
23361;BME280;11852;50.082;18.554;2023-03-01T00:14:06;99817.01;;;-1.28;73.87
23361;BME280;11852;50.082;18.554;2023-03-01T00:15:17;99812.5;;;-1.28;73.92
23361;BME280;11852;50.082;18.554;2023-03-01T00:16:29;99809.0;;;-1.29;74.0
23361;BME280;11852;50.082;18.554;2023-03-01T00:17:35;99810.0;;;-1.32;74.07
23361;BME280;11852;50.082;18.554;2023-03-01T00:18:42;99810.0;;;-1.33;74.19
23361;BME280;11852;50.082;18.554;2023-03-01T00:19:49;99809.5;;;-1.32;74.32
23361;BME280;11852;50.082;18.554;2023-03-01T00:20:56;99809.0;;;-1.34;74.57
23361;BME280;11852;50.082;18.554;2023-03-01T00:22:03;99814.0;;;-1.31;74.79
23361;BME280;11852;50.082;18.554;2023-03-01T00:23:13;99816.0;;;-1.3;74.78
23361;BME280;11852;50.082;18.554;2023-03-01T00:24:20;99816.0;;;-1.36;74.9
23361;BME280;11852;50.082;18.554;2023-03-01T00:25:27;99818.5;;;-1.35;74.8
23361;BME280;11852;50.082;18.554;2023-03-01T00:26:34;99819.5;;;-1.32;74.72
23361;BME280;11852;50.082;18.554;2023-03-01T00:27:41;99818.5;;;-1.28;74.7
23361;BME280;11852;50.082;18.554;2023-03-01T00:28:49;99819.5;;;-1.28;74.61
23361;BME280;11852;50.082;18.554;2023-03-01T00:29:56;99818.5;;;-1.27;74.5
23361;BME280;11852;50.082;18.554;2023-03-01T00:32:10;99817.0;;;-1.26;74.48
23361;BME280;11852;50.082;18.554;2023-03-01T00:33:17;99817.0;;;-1.27;74.39
23361;BME280;11852;50.082;18.554;2023-03-01T00:34:26;99819.0;;;-1.27;74.26
23361;BME280;11852;50.082;18.554;2023-03-01T00:35:33;99816.5;;;-1.25;74.29
23361;BME280;11852;50.082;18.554;2023-03-01T00:36:40;99817.01;;;-1.26;74.3
23361;BME280;11852;50.082;18.554;2023-03-01T00:37:47;99816.5;;;-1.24;74.23
23361;BME280;11852;50.082;18.554;2023-03-01T00:38:54;99814.0;;;-1.25;74.37
23361;BME280;11852;50.082;18.554;2023-03-01T00:40:01;99814.0;;;-1.27;74.28
23361;BME280;11852;50.082;18.554;2023-03-01T00:41:14;99810.0;;;-1.28;74.18
23361;BME280;11852;50.082;18.554;2023-03-01T00:42:20;99803.0;;;-1.26;74.26
23361;BME280;11852;50.082;18.554;2023-03-01T00:43:31;99800.5;;;-1.25;74.31
23361;BME280;11852;50.082;18.554;2023-03-01T00:44:37;99796.5;;;-1.26;74.37
23361;BME280;11852;50.082;18.554;2023-03-01T00:45:45;99797.5;;;-1.27;74.28
23361;BME280;11852;50.082;18.554;2023-03-01T00:46:52;99792.01;;;-1.27;74.52
23361;BME280;11852;50.082;18.554;2023-03-01T00:47:59;99792.01;;;-1.29;74.53
23361;BME280;11852;50.082;18.554;2023-03-01T00:49:06;99791.0;;;-1.31;74.52
23361;BME280;11852;50.082;18.554;2023-03-01T00:50:13;99793.5;;;-1.37;74.61
23361;BME280;11852;50.082;18.554;2023-03-01T00:51:21;99789.5;;;-1.37;74.65
23361;BME280;11852;50.082;18.554;2023-03-01T00:52:26;99785.5;;;-1.38;74.76
23361;BME280;11852;50.082;18.554;2023-03-01T00:53:34;99783.5;;;-1.43;74.88
23361;BME280;11852;50.082;18.554;2023-03-01T00:54:48;99781.0;;;-1.44;74.86
23361;BME280;11852;50.082;18.554;2023-03-01T00:55:56;99783.5;;;-1.46;74.94
23361;BME280;11852;50.082;18.554;2023-03-01T00:57:02;99782.49;;;-1.51;75.01
23361;BME280;11852;50.082;18.554;2023-03-01T00:58:12;99780.5;;;-1.53;74.97
23361;BME280;11852;50.082;18.554;2023-03-01T00:59:19;99780.5;;;-1.54;75.03
23361;BME280;11852;50.082;18.554;2023-03-01T01:00:26;99781.0;;;-1.54;75.07
23361;BME280;11852;50.082;18.554;2023-03-01T01:01:33;99779.51;;;-1.53;75.14
23361;BME280;11852;50.082;18.554;2023-03-01T01:02:40;99774.5;;;-1.55;75.16
23361;BME280;11852;50.082;18.554;2023-03-01T01:04:56;99776.0;;;-1.56;75.12
23361;BME280;11852;50.082;18.554;2023-03-01T01:06:03;99777.5;;;-1.57;75.19
23361;BME280;11852;50.082;18.554;2023-03-01T01:07:11;99779.51;;;-1.58;75.32
23361;BME280;11852;50.082;18.554;2023-03-01T01:08:18;99780.01;;;-1.56;75.22
23361;BME280;11852;50.082;18.554;2023-03-01T01:09:25;99780.5;;;-1.57;75.32
23361;BME280;11852;50.082;18.554;2023-03-01T01:10:33;99785.0;;;-1.54;75.42
23361;BME280;11852;50.082;18.554;2023-03-01T01:11:39;99784.0;;;-1.5;75.6
23361;BME280;11852;50.082;18.554;2023-03-01T01:12:46;99782.49;;;-1.51;75.9
23361;BME280;11852;50.082;18.554;2023-03-01T01:13:54;99778.5;;;-1.5;75.85
23361;BME280;11852;50.082;18.554;2023-03-01T01:15:00;99778.5;;;-1.55;75.81
23361;BME280;11852;50.082;18.554;2023-03-01T01:16:07;99777.0;;;-1.59;75.93
23361;BME280;11852;50.082;18.554;2023-03-01T01:17:14;99778.5;;;-1.61;76.08
23361;BME280;11852;50.082;18.554;2023-03-01T01:18:22;99777.5;;;-1.61;76.19
23361;BME280;11852;50.082;18.554;2023-03-01T01:19:30;99779.0;;;-1.62;76.18
23361;BME280;11852;50.082;18.554;2023-03-01T01:20:36;99778.0;;;-1.65;76.17
23361;BME280;11852;50.082;18.554;2023-03-01T01:21:44;99780.5;;;-1.68;76.11
23361;BME280;11852;50.082;18.554;2023-03-01T01:22:51;99780.0;;;-1.62;76.07
23361;BME280;11852;50.082;18.554;2023-03-01T01:23:58;99778.5;;;-1.63;76.32
23361;BME280;11852;50.082;18.554;2023-03-01T01:25:10;99782.49;;;-1.56;76.22
23361;BME280;11852;50.082;18.554;2023-03-01T01:27:26;99777.0;;;-1.53;76.28
23361;BME280;11852;50.082;18.554;2023-03-01T01:28:33;99778.5;;;-1.54;76.36
23361;BME280;11852;50.082;18.554;2023-03-01T01:29:40;99775.0;;;-1.56;76.36
23361;BME280;11852;50.082;18.554;2023-03-01T01:30:47;99773.5;;;-1.56;76.32
23361;BME280;11852;50.082;18.554;2023-03-01T01:31:56;99774.0;;;-1.57;76.32
23361;BME280;11852;50.082;18.554;2023-03-01T01:33:03;99773.0;;;-1.62;76.24
23361;BME280;11852;50.082;18.554;2023-03-01T01:34:18;99774.5;;;-1.62;76.18
23361;BME280;11852;50.082;18.554;2023-03-01T01:35:23;99773.0;;;-1.63;76.32
23361;BME280;11852;50.082;18.554;2023-03-01T01:36:31;99774.5;;;-1.63;76.23
23361;BME280;11852;50.082;18.554;2023-03-01T01:37:37;99769.99;;;-1.63;76.3
23361;BME280;11852;50.082;18.554;2023-03-01T01:38:46;99771.0;;;-1.64;76.36
23361;BME280;11852;50.082;18.554;2023-03-01T01:40:00;99768.0;;;-1.64;76.31
23361;BME280;11852;50.082;18.554;2023-03-01T01:41:11;99768.5;;;-1.65;76.2
23361;BME280;11852;50.082;18.554;2023-03-01T01:42:19;99766.0;;;-1.65;76.1
23361;BME280;11852;50.082;18.554;2023-03-01T01:44:33;99760.0;;;-1.68;76.32
23361;BME280;11852;50.082;18.554;2023-03-01T01:45:40;99758.5;;;-1.72;76.31
23361;BME280;11852;50.082;18.554;2023-03-01T01:46:56;99754.0;;;-1.72;76.32
23361;BME280;11852;50.082;18.554;2023-03-01T01:48:02;99751.0;;;-1.72;76.44
23361;BME280;11852;50.082;18.554;2023-03-01T01:50:15;99751.0;;;-1.69;76.55
23361;BME280;11852;50.082;18.554;2023-03-01T01:51:25;99749.5;;;-1.65;76.62
23361;BME280;11852;50.082;18.554;2023-03-01T01:52:32;99752.5;;;-1.66;76.71
23361;BME280;11852;50.082;18.554;2023-03-01T01:53:39;99753.5;;;-1.65;76.62
23361;BME280;11852;50.082;18.554;2023-03-01T01:54:53;99752.5;;;-1.65;76.63
23361;BME280;11852;50.082;18.554;2023-03-01T01:55:59;99754.5;;;-1.67;76.76
23361;BME280;11852;50.082;18.554;2023-03-01T01:58:15;99752.0;;;-1.72;76.77
23361;BME280;11852;50.082;18.554;2023-03-01T01:59:20;99752.0;;;-1.7;76.79
23361;BME280;11852;50.082;18.554;2023-03-01T02:00:29;99750.0;;;-1.71;76.68
23361;BME280;11852;50.082;18.554;2023-03-01T02:01:35;99749.0;;;-1.7;76.53
23361;BME280;11852;50.082;18.554;2023-03-01T02:02:45;99751.0;;;-1.7;76.52
23361;BME280;11852;50.082;18.554;2023-03-01T02:03:52;99746.5;;;-1.71;76.41
23361;BME280;11852;50.082;18.554;2023-03-01T02:06:26;99749.5;;;-1.74;76.49
23361;BME280;11852;50.082;18.554;2023-03-01T02:07:29;99749.5;;;-1.74;76.49
23361;BME280;11852;50.082;18.554;2023-03-01T02:08:40;99749.5;;;-1.76;76.53
23361;BME280;11852;50.082;18.554;2023-03-01T02:09:47;99749.0;;;-1.79;76.56
23361;BME280;11852;50.082;18.554;2023-03-01T02:10:55;99748.5;;;-1.78;76.47
23361;BME280;11852;50.082;18.554;2023-03-01T02:12:03;99746.5;;;-1.79;76.58
23361;BME280;11852;50.082;18.554;2023-03-01T02:13:10;99744.5;;;-1.81;76.69
23361;BME280;11852;50.082;18.554;2023-03-01T02:14:17;99744.5;;;-1.81;76.58
23361;BME280;11852;50.082;18.554;2023-03-01T02:15:31;99739.0;;;-1.78;76.65
23361;BME280;11852;50.082;18.554;2023-03-01T02:16:35;99740.0;;;-1.8;76.74
23361;BME280;11852;50.082;18.554;2023-03-01T02:17:42;99741.0;;;-1.83;76.94
23361;BME280;11852;50.082;18.554;2023-03-01T02:18:49;99740.0;;;-1.83;77.04
23361;BME280;11852;50.082;18.554;2023-03-01T02:22:33;99732.0;;;-1.89;77.1
23361;BME280;11852;50.082;18.554;2023-03-01T02:23:40;99732.49;;;-1.93;77.17
23361;BME280;11852;50.082;18.554;2023-03-01T02:24:54;99731.5;;;-1.95;77.18
23361;BME280;11852;50.082;18.554;2023-03-01T02:26:09;99731.0;;;-1.94;77.21
23361;BME280;11852;50.082;18.554;2023-03-01T02:27:14;99728.0;;;-1.94;77.24
23361;BME280;11852;50.082;18.554;2023-03-01T02:29:33;99727.0;;;-1.95;77.29
23361;BME280;11852;50.082;18.554;2023-03-01T02:30:44;99723.0;;;-1.95;77.34
23361;BME280;11852;50.082;18.554;2023-03-01T02:31:51;99720.49;;;-1.96;77.35
23361;BME280;11852;50.082;18.554;2023-03-01T02:33:00;99719.5;;;-2.0;77.28
23361;BME280;11852;50.082;18.554;2023-03-01T02:34:12;99719.5;;;-1.99;77.32
23361;BME280;11852;50.082;18.554;2023-03-01T02:35:19;99718.01;;;-1.99;77.41
23361;BME280;11852;50.082;18.554;2023-03-01T02:36:28;99718.5;;;-1.97;77.45
23361;BME280;11852;50.082;18.554;2023-03-01T02:37:33;99718.51;;;-1.99;77.53
23361;BME280;11852;50.082;18.554;2023-03-01T02:38:43;99718.5;;;-2.0;77.73
23361;BME280;11852;50.082;18.554;2023-03-01T02:39:52;99719.5;;;-1.98;77.82
23361;BME280;11852;50.082;18.554;2023-03-01T02:40:57;99716.5;;;-1.99;77.95
23361;BME280;11852;50.082;18.554;2023-03-01T02:42:09;99716.5;;;-1.98;77.96
23361;BME280;11852;50.082;18.554;2023-03-01T02:43:14;99719.5;;;-2.01;78.03
23361;BME280;11852;50.082;18.554;2023-03-01T02:44:21;99720.5;;;-1.98;77.96
23361;BME280;11852;50.082;18.554;2023-03-01T02:45:28;99720.5;;;-1.99;78.05
23361;BME280;11852;50.082;18.554;2023-03-01T02:46:41;99722.5;;;-1.99;78.15
23361;BME280;11852;50.082;18.554;2023-03-01T02:47:42;99724.0;;;-2.0;78.19
23361;BME280;11852;50.082;18.554;2023-03-01T02:48:51;99723.5;;;-2.02;78.18
23361;BME280;11852;50.082;18.554;2023-03-01T02:49:57;99722.0;;;-2.01;78.04
23361;BME280;11852;50.082;18.554;2023-03-01T02:54:52;99723.0;;;-2.07;78.07
23361;BME280;11852;50.082;18.554;2023-03-01T02:55:57;99723.5;;;-2.08;78.18
23361;BME280;11852;50.082;18.554;2023-03-01T02:57:04;99729.51;;;-2.07;78.13
23361;BME280;11852;50.082;18.554;2023-03-01T02:58:11;99730.0;;;-2.08;78.03
23361;BME280;11852;50.082;18.554;2023-03-01T02:59:19;99729.5;;;-2.09;78.0
23361;BME280;11852;50.082;18.554;2023-03-01T03:00:32;99728.0;;;-2.07;78.0
23361;BME280;11852;50.082;18.554;2023-03-01T03:01:40;99726.0;;;-2.06;78.11
23361;BME280;11852;50.082;18.554;2023-03-01T03:02:47;99724.5;;;-2.06;78.01
23361;BME280;11852;50.082;18.554;2023-03-01T03:03:54;99725.5;;;-2.08;77.96
23361;BME280;11852;50.082;18.554;2023-03-01T03:06:16;99724.0;;;-2.12;78.07
23361;BME280;11852;50.082;18.554;2023-03-01T03:07:25;99722.5;;;-2.1;77.97
23361;BME280;11852;50.082;18.554;2023-03-01T03:08:33;99719.0;;;-2.11;78.08
23361;BME280;11852;50.082;18.554;2023-03-01T03:09:40;99718.01;;;-2.08;77.96
23361;BME280;11852;50.082;18.554;2023-03-01T03:10:47;99718.5;;;-2.11;78.06
23361;BME280;11852;50.082;18.554;2023-03-01T03:11:54;99715.5;;;-2.12;78.04
23361;BME280;11852;50.082;18.554;2023-03-01T03:13:05;99719.5;;;-2.16;77.91
23361;BME280;11852;50.082;18.554;2023-03-01T03:14:12;99717.01;;;-2.2;77.95
23361;BME280;11852;50.082;18.554;2023-03-01T03:15:18;99714.5;;;-2.18;78.12
23361;BME280;11852;50.082;18.554;2023-03-01T03:16:25;99712.5;;;-2.17;78.13
23361;BME280;11852;50.082;18.554;2023-03-01T03:17:32;99710.0;;;-2.14;78.11
23361;BME280;11852;50.082;18.554;2023-03-01T03:18:39;99709.5;;;-2.14;78.2
23361;BME280;11852;50.082;18.554;2023-03-01T03:19:46;99710.0;;;-2.12;78.14
23361;BME280;11852;50.082;18.554;2023-03-01T03:20:53;99713.0;;;-2.1;78.18
23361;BME280;11852;50.082;18.554;2023-03-01T03:22:00;99716.0;;;-2.09;78.17
23361;BME280;11852;50.082;18.554;2023-03-01T03:23:07;99719.0;;;-2.1;78.12
23361;BME280;11852;50.082;18.554;2023-03-01T03:24:14;99719.5;;;-2.13;78.15
23361;BME280;11852;50.082;18.554;2023-03-01T03:25:21;99722.5;;;-2.07;78.06
23361;BME280;11852;50.082;18.554;2023-03-01T03:26:28;99722.0;;;-1.98;78.13
23361;BME280;11852;50.082;18.554;2023-03-01T03:27:36;99714.0;;;-1.96;78.24
23361;BME280;11852;50.082;18.554;2023-03-01T03:28:42;99713.0;;;-2.01;78.33
23361;BME280;11852;50.082;18.554;2023-03-01T03:29:49;99715.5;;;-2.04;78.21
23361;BME280;11852;50.082;18.554;2023-03-01T03:30:56;99715.0;;;-2.03;78.26
23361;BME280;11852;50.082;18.554;2023-03-01T03:32:05;99715.5;;;-2.01;78.32
23361;BME280;11852;50.082;18.554;2023-03-01T03:33:12;99714.5;;;-1.98;78.4
23361;BME280;11852;50.082;18.554;2023-03-01T03:34:19;99716.5;;;-1.97;78.43
23361;BME280;11852;50.082;18.554;2023-03-01T03:35:30;99717.5;;;-1.92;78.28
23361;BME280;11852;50.082;18.554;2023-03-01T03:36:36;99720.5;;;-1.94;78.29
23361;BME280;11852;50.082;18.554;2023-03-01T03:37:48;99724.0;;;-1.94;78.26
23361;BME280;11852;50.082;18.554;2023-03-01T03:38:55;99720.49;;;-1.91;78.2
23361;BME280;11852;50.082;18.554;2023-03-01T03:40:02;99720.0;;;-1.89;78.21
23361;BME280;11852;50.082;18.554;2023-03-01T03:41:09;99719.5;;;-1.86;78.14
23361;BME280;11852;50.082;18.554;2023-03-01T03:42:21;99720.0;;;-1.85;78.07
23361;BME280;11852;50.082;18.554;2023-03-01T03:43:28;99721.0;;;-1.85;78.01
23361;BME280;11852;50.082;18.554;2023-03-01T03:44:36;99716.0;;;-1.83;78.01
23361;BME280;11852;50.082;18.554;2023-03-01T03:45:44;99715.5;;;-1.93;77.97
23361;BME280;11852;50.082;18.554;2023-03-01T03:46:50;99715.0;;;-1.91;77.82
23361;BME280;11852;50.082;18.554;2023-03-01T03:47:57;99710.5;;;-1.95;77.78
23361;BME280;11852;50.082;18.554;2023-03-01T03:49:04;99714.0;;;-1.97;77.86
23361;BME280;11852;50.082;18.554;2023-03-01T03:50:12;99709.5;;;-2.01;78.01
23361;BME280;11852;50.082;18.554;2023-03-01T03:51:22;99711.5;;;-2.01;77.92
23361;BME280;11852;50.082;18.554;2023-03-01T03:52:29;99713.0;;;-2.1;78.03
23361;BME280;11852;50.082;18.554;2023-03-01T03:54:43;99717.51;;;-2.22;78.08
23361;BME280;11852;50.082;18.554;2023-03-01T03:55:50;99713.0;;;-2.14;78.08
23361;BME280;11852;50.082;18.554;2023-03-01T03:56:57;99712.0;;;-2.11;78.03
23361;BME280;11852;50.082;18.554;2023-03-01T03:58:03;99715.0;;;-2.08;77.96
23361;BME280;11852;50.082;18.554;2023-03-01T03:59:10;99713.5;;;-2.15;78.02
23361;BME280;11852;50.082;18.554;2023-03-01T04:00:19;99712.5;;;-2.11;77.99
23361;BME280;11852;50.082;18.554;2023-03-01T04:01:28;99712.5;;;-2.08;78.07
23361;BME280;11852;50.082;18.554;2023-03-01T04:02:35;99713.5;;;-2.09;77.97
23361;BME280;11852;50.082;18.554;2023-03-01T04:03:42;99710.0;;;-2.13;77.84
23361;BME280;11852;50.082;18.554;2023-03-01T04:05:09;99706.0;;;-2.15;77.77
23361;BME280;11852;50.082;18.554;2023-03-01T04:06:15;99704.51;;;-2.16;77.75
23361;BME280;11852;50.082;18.554;2023-03-01T04:07:22;99700.0;;;-2.18;77.83
23361;BME280;11852;50.082;18.554;2023-03-01T04:08:29;99697.0;;;-2.18;77.92
23361;BME280;11852;50.082;18.554;2023-03-01T04:09:36;99696.0;;;-2.22;78.0
23361;BME280;11852;50.082;18.554;2023-03-01T04:10:47;99694.99;;;-2.24;78.1
23361;BME280;11852;50.082;18.554;2023-03-01T04:11:53;99694.0;;;-2.28;78.31
23361;BME280;11852;50.082;18.554;2023-03-01T04:13:00;99695.5;;;-2.27;78.29
23361;BME280;11852;50.082;18.554;2023-03-01T04:14:11;99698.0;;;-2.27;78.19
23361;BME280;11852;50.082;18.554;2023-03-01T04:15:19;99698.0;;;-2.29;78.18
23361;BME280;11852;50.082;18.554;2023-03-01T04:16:26;99699.5;;;-2.3;77.96
23361;BME280;11852;50.082;18.554;2023-03-01T04:17:33;99702.0;;;-2.31;78.14
23361;BME280;11852;50.082;18.554;2023-03-01T04:18:40;99705.5;;;-2.31;78.18
23361;BME280;11852;50.082;18.554;2023-03-01T04:19:47;99706.5;;;-2.3;78.18
23361;BME280;11852;50.082;18.554;2023-03-01T04:20:57;99708.5;;;-2.32;78.25
23361;BME280;11852;50.082;18.554;2023-03-01T04:22:04;99710.0;;;-2.35;78.25
23361;BME280;11852;50.082;18.554;2023-03-01T04:23:16;99710.0;;;-2.38;78.06
23361;BME280;11852;50.082;18.554;2023-03-01T04:24:21;99711.0;;;-2.41;78.07
23361;BME280;11852;50.082;18.554;2023-03-01T04:25:28;99710.5;;;-2.42;78.18
23361;BME280;11852;50.082;18.554;2023-03-01T04:26:35;99709.0;;;-2.45;78.21
23361;BME280;11852;50.082;18.554;2023-03-01T04:27:42;99710.0;;;-2.47;78.17
23361;BME280;11852;50.082;18.554;2023-03-01T04:28:49;99709.5;;;-2.45;78.18
23361;BME280;11852;50.082;18.554;2023-03-01T04:29:56;99710.5;;;-2.47;78.21
23361;BME280;11852;50.082;18.554;2023-03-01T04:31:05;99709.0;;;-2.47;78.1
23361;BME280;11852;50.082;18.554;2023-03-01T04:32:10;99707.49;;;-2.51;78.2
23361;BME280;11852;50.082;18.554;2023-03-01T04:33:17;99712.0;;;-2.51;78.15
23361;BME280;11852;50.082;18.554;2023-03-01T04:34:24;99716.0;;;-2.47;78.19
23361;BME280;11852;50.082;18.554;2023-03-01T04:35:32;99717.5;;;-2.48;78.24
23361;BME280;11852;50.082;18.554;2023-03-01T04:36:38;99717.5;;;-2.48;78.29
23361;BME280;11852;50.082;18.554;2023-03-01T04:37:49;99717.51;;;-2.49;78.4
23361;BME280;11852;50.082;18.554;2023-03-01T04:38:56;99718.5;;;-2.52;78.46
23361;BME280;11852;50.082;18.554;2023-03-01T04:40:03;99719.0;;;-2.53;78.34
23361;BME280;11852;50.082;18.554;2023-03-01T04:41:10;99720.49;;;-2.51;78.31
23361;BME280;11852;50.082;18.554;2023-03-01T04:43:27;99717.01;;;-2.51;78.32
23361;BME280;11852;50.082;18.554;2023-03-01T04:44:34;99720.0;;;-2.51;78.44
23361;BME280;11852;50.082;18.554;2023-03-01T04:45:41;99717.01;;;-2.52;78.49
23361;BME280;11852;50.082;18.554;2023-03-01T04:46:48;99718.51;;;-2.5;78.49
23361;BME280;11852;50.082;18.554;2023-03-01T04:47:55;99716.0;;;-2.47;78.34
23361;BME280;11852;50.082;18.554;2023-03-01T04:49:02;99714.0;;;-2.5;78.4
23361;BME280;11852;50.082;18.554;2023-03-01T04:50:13;99712.5;;;-2.49;78.32
23361;BME280;11852;50.082;18.554;2023-03-01T04:51:19;99713.5;;;-2.51;78.46
23361;BME280;11852;50.082;18.554;2023-03-01T04:52:26;99711.5;;;-2.59;78.65
23361;BME280;11852;50.082;18.554;2023-03-01T04:53:33;99713.0;;;-2.61;78.69
23361;BME280;11852;50.082;18.554;2023-03-01T04:54:40;99711.0;;;-2.59;78.87
23361;BME280;11852;50.082;18.554;2023-03-01T04:55:47;99716.5;;;-2.53;78.81
23361;BME280;11852;50.082;18.554;2023-03-01T04:56:54;99714.5;;;-2.5;78.93
23361;BME280;11852;50.082;18.554;2023-03-01T04:58:05;99715.5;;;-2.49;79.06
23361;BME280;11852;50.082;18.554;2023-03-01T04:59:12;99712.5;;;-2.47;79.15
23361;BME280;11852;50.082;18.554;2023-03-01T05:00:22;99712.5;;;-2.47;79.07
23361;BME280;11852;50.082;18.554;2023-03-01T05:01:29;99712.5;;;-2.49;79.02
23361;BME280;11852;50.082;18.554;2023-03-01T05:02:36;99711.0;;;-2.49;78.97
23361;BME280;11852;50.082;18.554;2023-03-01T05:03:44;99710.5;;;-2.43;78.93
23361;BME280;11852;50.082;18.554;2023-03-01T05:04:50;99712.5;;;-2.45;78.96
23361;BME280;11852;50.082;18.554;2023-03-01T05:05:58;99713.5;;;-2.49;79.18
23361;BME280;11852;50.082;18.554;2023-03-01T05:07:04;99714.0;;;-2.52;79.09
23361;BME280;11852;50.082;18.554;2023-03-01T05:08:11;99715.0;;;-2.5;78.96
23361;BME280;11852;50.082;18.554;2023-03-01T05:09:18;99713.0;;;-2.51;78.98
23361;BME280;11852;50.082;18.554;2023-03-01T05:10:25;99712.0;;;-2.52;78.92
23361;BME280;11852;50.082;18.554;2023-03-01T05:11:34;99709.0;;;-2.51;78.82
23361;BME280;11852;50.082;18.554;2023-03-01T05:12:41;99707.49;;;-2.5;78.76
23361;BME280;11852;50.082;18.554;2023-03-01T05:13:48;99707.0;;;-2.53;78.96
23361;BME280;11852;50.082;18.554;2023-03-01T05:14:55;99703.5;;;-2.53;79.03
23361;BME280;11852;50.082;18.554;2023-03-01T05:16:03;99703.0;;;-2.52;79.06
23361;BME280;11852;50.082;18.554;2023-03-01T05:17:10;99699.5;;;-2.53;79.14
23361;BME280;11852;50.082;18.554;2023-03-01T05:18:19;99700.5;;;-2.53;79.13
23361;BME280;11852;50.082;18.554;2023-03-01T05:19:24;99700.0;;;-2.5;79.06
23361;BME280;11852;50.082;18.554;2023-03-01T05:20:31;99700.0;;;-2.54;79.26
23361;BME280;11852;50.082;18.554;2023-03-01T05:21:38;99700.0;;;-2.57;79.23
23361;BME280;11852;50.082;18.554;2023-03-01T05:22:45;99697.0;;;-2.6;79.12
23361;BME280;11852;50.082;18.554;2023-03-01T05:23:52;99698.5;;;-2.63;79.07
23361;BME280;11852;50.082;18.554;2023-03-01T05:24:59;99695.0;;;-2.63;79.19
23361;BME280;11852;50.082;18.554;2023-03-01T05:26:06;99694.0;;;-2.63;79.03
23361;BME280;11852;50.082;18.554;2023-03-01T05:27:13;99694.5;;;-2.64;78.96
23361;BME280;11852;50.082;18.554;2023-03-01T05:28:20;99694.5;;;-2.62;79.12
23361;BME280;11852;50.082;18.554;2023-03-01T05:29:27;99698.0;;;-2.57;79.04
23361;BME280;11852;50.082;18.554;2023-03-01T05:30:34;99697.0;;;-2.56;79.06
23361;BME280;11852;50.082;18.554;2023-03-01T05:31:40;99700.0;;;-2.53;79.01
23361;BME280;11852;50.082;18.554;2023-03-01T05:32:48;99702.5;;;-2.47;79.04
23361;BME280;11852;50.082;18.554;2023-03-01T05:33:59;99705.0;;;-2.47;79.13
23361;BME280;11852;50.082;18.554;2023-03-01T05:35:08;99702.5;;;-2.52;79.03
23361;BME280;11852;50.082;18.554;2023-03-01T05:36:15;99702.5;;;-2.55;79.13
23361;BME280;11852;50.082;18.554;2023-03-01T05:37:22;99700.5;;;-2.54;79.28
23361;BME280;11852;50.082;18.554;2023-03-01T05:38:29;99697.0;;;-2.55;79.3
23361;BME280;11852;50.082;18.554;2023-03-01T05:39:36;99698.5;;;-2.53;79.36
23361;BME280;11852;50.082;18.554;2023-03-01T05:40:43;99697.0;;;-2.58;79.52
23361;BME280;11852;50.082;18.554;2023-03-01T05:41:53;99697.0;;;-2.58;79.25
23361;BME280;11852;50.082;18.554;2023-03-01T05:43:00;99694.99;;;-2.59;79.31
23361;BME280;11852;50.082;18.554;2023-03-01T05:44:07;99699.5;;;-2.56;79.32
23361;BME280;11852;50.082;18.554;2023-03-01T05:45:14;99700.5;;;-2.54;79.15
23361;BME280;11852;50.082;18.554;2023-03-01T05:46:21;99703.5;;;-2.51;79.01
23361;BME280;11852;50.082;18.554;2023-03-01T05:47:28;99703.5;;;-2.5;78.92
23361;BME280;11852;50.082;18.554;2023-03-01T05:48:35;99704.0;;;-2.53;78.82
23361;BME280;11852;50.082;18.554;2023-03-01T05:49:42;99702.5;;;-2.54;78.85
23361;BME280;11852;50.082;18.554;2023-03-01T05:50:49;99702.5;;;-2.56;78.88
23361;BME280;11852;50.082;18.554;2023-03-01T05:51:56;99705.5;;;-2.53;78.69
23361;BME280;11852;50.082;18.554;2023-03-01T05:53:10;99706.5;;;-2.53;78.88
23361;BME280;11852;50.082;18.554;2023-03-01T05:54:19;99707.0;;;-2.53;79.0
23361;BME280;11852;50.082;18.554;2023-03-01T05:55:25;99709.0;;;-2.55;79.08
23361;BME280;11852;50.082;18.554;2023-03-01T05:56:36;99709.5;;;-2.53;79.1
23361;BME280;11852;50.082;18.554;2023-03-01T05:57:42;99708.5;;;-2.52;79.24
23361;BME280;11852;50.082;18.554;2023-03-01T05:58:50;99709.5;;;-2.53;79.31
23361;BME280;11852;50.082;18.554;2023-03-01T05:59:57;99711.5;;;-2.53;79.34
23361;BME280;11852;50.082;18.554;2023-03-01T06:01:04;99708.0;;;-2.51;79.4
23361;BME280;11852;50.082;18.554;2023-03-01T06:02:11;99709.5;;;-2.5;79.44
23361;BME280;11852;50.082;18.554;2023-03-01T06:03:18;99712.0;;;-2.49;79.58
23361;BME280;11852;50.082;18.554;2023-03-01T06:04:25;99712.0;;;-2.49;79.66
23361;BME280;11852;50.082;18.554;2023-03-01T06:05:31;99708.5;;;-2.43;79.65
23361;BME280;11852;50.082;18.554;2023-03-01T06:07:45;99707.49;;;-2.41;79.48
23361;BME280;11852;50.082;18.554;2023-03-01T06:08:52;99708.5;;;-2.4;79.54
23361;BME280;11852;50.082;18.554;2023-03-01T06:09:59;99705.5;;;-2.39;79.4
23361;BME280;11852;50.082;18.554;2023-03-01T06:11:06;99706.0;;;-2.38;79.4
23361;BME280;11852;50.082;18.554;2023-03-01T06:12:13;99707.99;;;-2.38;79.44
23361;BME280;11852;50.082;18.554;2023-03-01T06:13:20;99706.99;;;-2.37;79.44
23361;BME280;11852;50.082;18.554;2023-03-01T06:14:27;99707.49;;;-2.37;79.39
23361;BME280;11852;50.082;18.554;2023-03-01T06:15:35;99708.0;;;-2.38;79.42
23361;BME280;11852;50.082;18.554;2023-03-01T06:16:42;99704.51;;;-2.37;79.38
23361;BME280;11852;50.082;18.554;2023-03-01T06:17:49;99705.0;;;-2.41;79.5
23361;BME280;11852;50.082;18.554;2023-03-01T06:18:57;99704.51;;;-2.39;79.59